createdAt,value
2022-11-25T00:00:53.322Z,8.17
2022-11-25T00:03:21.292Z,8.03
2022-11-25T00:05:49.270Z,8.27
2022-11-25T00:08:17.194Z,7.80
2022-11-25T00:10:45.149Z,7.37
2022-11-25T00:13:13.040Z,6.90
2022-11-25T00:15:40.983Z,7.50
2022-11-25T00:18:10.385Z,7.50
2022-11-25T00:20:38.948Z,6.93
2022-11-25T00:23:06.989Z,7.80
2022-11-25T00:25:34.920Z,7.17
2022-11-25T00:28:02.856Z,7.17
2022-11-25T00:30:30.849Z,8.30
2022-11-25T00:32:58.831Z,9.83
2022-11-25T00:35:28.200Z,8.10
2022-11-25T00:37:56.115Z,7.97
2022-11-25T00:40:24.067Z,6.40
2022-11-25T00:43:09.625Z,7.67
2022-11-25T00:45:37.651Z,7.63
2022-11-25T00:48:05.990Z,7.47
2022-11-25T00:50:35.389Z,7.83
2022-11-25T00:53:03.303Z,8.17
2022-11-25T00:55:51.279Z,7.57
2022-11-25T00:58:19.240Z,7.70
2022-11-25T01:00:47.202Z,7.60
2022-11-25T01:03:15.185Z,8.73
2022-11-25T01:05:44.552Z,8.00
2022-11-25T01:08:12.488Z,7.90
2022-11-25T01:10:40.466Z,7.83
2022-11-25T01:13:08.596Z,7.53
2022-11-25T01:15:38.273Z,8.13
2022-11-25T01:18:06.271Z,7.80
2022-11-25T01:20:34.288Z,7.40
2022-11-25T01:23:03.648Z,6.90
2022-11-25T01:25:31.609Z,7.33
2022-11-25T01:27:59.603Z,7.30
2022-11-25T01:30:27.777Z,6.80
2022-11-25T01:32:55.734Z,6.87
2022-11-25T01:35:23.815Z,6.00
2022-11-25T01:37:51.749Z,6.70
2022-11-25T01:40:21.158Z,6.70
2022-11-25T01:42:49.487Z,6.83
2022-11-25T01:45:41.054Z,7.27
2022-11-25T01:48:12.878Z,7.30
2022-11-25T01:50:41.538Z,7.77
2022-11-25T01:53:11.612Z,10.23
2022-11-25T01:55:42.692Z,8.80
2022-11-25T01:58:11.578Z,7.93
2022-11-25T02:00:40.200Z,8.93
2022-11-25T02:03:08.672Z,8.40
2022-11-25T02:05:39.788Z,8.00
2022-11-25T02:08:08.483Z,8.50
2022-11-25T02:10:36.896Z,8.40
2022-11-25T02:13:06.229Z,7.73
2022-11-25T02:15:35.420Z,7.77
2022-11-25T02:18:03.662Z,7.13
2022-11-25T02:20:31.685Z,7.47
2022-11-25T02:23:01.951Z,8.03
2022-11-25T02:25:32.773Z,8.43
2022-11-25T02:28:02.998Z,7.50
2022-11-25T02:30:30.921Z,7.07
2022-11-25T02:32:59.857Z,6.27
2022-11-25T02:35:32.645Z,6.00
2022-11-25T02:38:02.286Z,5.93
2022-11-25T02:40:31.964Z,5.73
2022-11-25T02:43:00.971Z,5.17
2022-11-25T02:45:33.296Z,5.43
2022-11-25T02:48:01.285Z,4.60
2022-11-25T02:50:29.205Z,4.90
2022-11-25T02:52:57.203Z,4.97
2022-11-25T02:55:25.147Z,5.13
2022-11-25T02:57:54.502Z,3.83
2022-11-25T03:00:22.701Z,4.57
2022-11-25T03:02:54.616Z,4.33
2022-11-25T03:05:23.028Z,4.60
2022-11-25T03:07:51.198Z,4.27
2022-11-25T03:10:20.531Z,3.90
2022-11-25T03:12:48.637Z,3.87
2022-11-25T03:15:18.168Z,4.30
2022-11-25T03:17:46.517Z,5.00
2022-11-25T03:20:15.398Z,4.63
2022-11-25T03:22:43.374Z,4.73
2022-11-25T03:25:12.031Z,4.63
2022-11-25T03:27:40.569Z,5.40
2022-11-25T03:30:09.871Z,3.97
2022-11-25T03:32:40.449Z,4.43
2022-11-25T03:35:09.705Z,4.10
2022-11-25T03:37:38.171Z,4.67
2022-11-25T03:40:07.121Z,4.33
2022-11-25T03:42:38.314Z,4.30
2022-11-25T03:45:07.020Z,5.17
2022-11-25T03:47:38.198Z,4.53
2022-11-25T03:50:08.738Z,4.67
2022-11-25T03:52:36.926Z,4.40
2022-11-25T03:55:05.485Z,4.23
2022-11-25T03:57:33.603Z,4.00
2022-11-25T04:00:02.144Z,4.80
2022-11-25T04:02:30.293Z,4.40
2022-11-25T04:04:58.278Z,5.00
2022-11-25T04:07:27.947Z,4.40
2022-11-25T04:09:55.963Z,4.67
2022-11-25T04:12:41.592Z,4.60
2022-11-25T04:15:09.916Z,4.23
2022-11-25T04:17:38.103Z,5.00
2022-11-25T04:20:08.385Z,4.40
2022-11-25T04:22:41.143Z,4.73
2022-11-25T04:25:11.958Z,4.47
2022-11-25T04:27:39.942Z,4.80
2022-11-25T04:30:08.596Z,4.50
2022-11-25T04:32:40.126Z,5.57
2022-11-25T04:35:08.437Z,4.67
2022-11-25T04:37:37.059Z,4.87
2022-11-25T04:40:07.319Z,4.63
2022-11-25T04:42:37.069Z,5.00
2022-11-25T04:45:22.584Z,4.90
2022-11-25T04:47:51.479Z,5.10
2022-11-25T04:50:20.727Z,4.40
2022-11-25T04:52:48.744Z,5.30
2022-11-25T04:55:18.270Z,4.77
2022-11-25T04:57:46.356Z,4.90
2022-11-25T05:00:13.632Z,4.50
2022-11-25T05:02:42.109Z,5.50
2022-11-25T05:05:10.385Z,5.10
2022-11-25T05:07:39.124Z,5.83
2022-11-25T05:10:08.181Z,5.93
2022-11-25T05:12:38.367Z,7.10
2022-11-25T05:15:06.986Z,6.77
2022-11-25T05:17:37.596Z,6.50
2022-11-25T05:20:06.757Z,8.27
2022-11-25T05:22:35.428Z,7.33
2022-11-25T05:25:09.593Z,6.47
2022-11-25T05:27:39.292Z,5.57
2022-11-25T05:30:10.239Z,5.40
2022-11-25T05:32:41.233Z,5.70
2022-11-25T05:35:09.741Z,6.33
2022-11-25T05:37:40.856Z,6.10
2022-11-25T05:40:09.787Z,6.13
2022-11-25T05:42:40.830Z,6.00
2022-11-25T05:45:09.569Z,7.03
2022-11-25T05:47:37.608Z,6.70
2022-11-25T05:50:05.968Z,6.73
2022-11-25T05:52:34.222Z,7.50
2022-11-25T05:55:02.313Z,7.20
2022-11-25T05:58:15.407Z,7.43
2022-11-25T06:00:45.702Z,8.53
2022-11-25T06:03:13.668Z,6.43
2022-11-25T06:05:42.269Z,6.27
2022-11-25T06:08:10.819Z,7.03
2022-11-25T06:10:39.799Z,5.83
2022-11-25T06:13:08.089Z,6.77
2022-11-25T06:15:36.282Z,6.50
2022-11-25T06:18:05.707Z,6.07
2022-11-25T06:20:33.607Z,5.67
2022-11-25T06:23:01.779Z,6.67
2022-11-25T06:25:30.157Z,6.50
2022-11-25T06:28:12.286Z,6.90
2022-11-25T06:30:41.037Z,6.30
2022-11-25T06:33:10.635Z,6.07
2022-11-25T06:35:38.586Z,6.40
2022-11-25T06:38:06.698Z,6.67
2022-11-25T06:40:34.618Z,5.90
2022-11-25T06:43:02.522Z,5.70
2022-11-25T06:45:30.619Z,6.00
2022-11-25T06:47:58.518Z,6.30
2022-11-25T06:50:27.829Z,5.30
2022-11-25T06:52:55.776Z,5.60
2022-11-25T06:55:23.655Z,6.50
2022-11-25T06:57:59.034Z,6.20
2022-11-25T07:00:36.248Z,5.97
2022-11-25T07:03:04.243Z,6.27
2022-11-25T07:05:33.587Z,5.30
2022-11-25T07:08:01.553Z,5.80
2022-11-25T07:10:29.510Z,5.70
2022-11-25T07:12:59.590Z,4.80
2022-11-25T07:15:27.475Z,4.93
2022-11-25T07:17:55.387Z,5.83
2022-11-25T07:20:25.375Z,5.80
2022-11-25T07:22:54.684Z,5.47
2022-11-25T07:25:25.457Z,5.90
2022-11-25T07:27:57.301Z,5.83
2022-11-25T07:33:13.549Z,5.17
2022-11-25T07:35:41.474Z,7.03
2022-11-25T07:38:11.003Z,6.73
2022-11-25T07:40:39.123Z,5.83
2022-11-25T07:43:06.995Z,6.60
2022-11-25T07:45:34.937Z,6.93
2022-11-25T07:48:03.103Z,6.57
2022-11-25T07:50:31.005Z,6.00
2022-11-25T07:52:59.065Z,6.80
2022-11-25T07:55:28.376Z,6.03
2022-11-25T07:57:56.262Z,6.33
2022-11-25T08:00:24.282Z,6.83
2022-11-25T08:02:53.166Z,7.13
2022-11-25T08:05:21.150Z,6.03
2022-11-25T08:07:49.104Z,7.10
2022-11-25T08:10:19.040Z,6.67
2022-11-25T08:12:48.704Z,6.30
2022-11-25T08:15:16.793Z,7.03
2022-11-25T08:17:44.790Z,6.27
2022-11-25T08:20:13.064Z,5.97
2022-11-25T08:22:41.179Z,6.87
2022-11-25T08:25:09.418Z,6.80
2022-11-25T08:27:37.370Z,8.30
2022-11-25T08:30:07.667Z,6.90
2022-11-25T08:32:38.099Z,7.00
2022-11-25T08:35:06.452Z,7.27
2022-11-25T08:37:34.350Z,7.67
2022-11-25T08:40:02.416Z,6.50
2022-11-25T08:42:30.368Z,6.10
2022-11-25T08:44:58.273Z,6.57
2022-11-25T08:47:27.659Z,6.43
2022-11-25T08:49:55.867Z,5.90
2022-11-25T08:52:24.259Z,6.93
2022-11-25T08:54:52.215Z,6.63
2022-11-25T08:57:20.172Z,6.63
2022-11-25T08:59:48.073Z,6.40
2022-11-25T09:02:17.172Z,6.20
2022-11-25T09:04:46.638Z,6.50
2022-11-25T09:07:14.774Z,6.13
2022-11-25T09:09:43.000Z,6.47
2022-11-25T09:12:10.924Z,6.27
2022-11-25T09:14:40.606Z,6.53
2022-11-25T09:17:09.986Z,5.50
2022-11-25T09:19:38.115Z,6.17
2022-11-25T09:22:08.272Z,5.97
2022-11-25T09:24:36.246Z,5.63
2022-11-25T09:27:04.529Z,6.03
2022-11-25T09:29:32.490Z,6.63
2022-11-25T09:32:00.763Z,7.77
2022-11-25T09:34:28.955Z,7.03
2022-11-25T09:36:56.882Z,6.97
2022-11-25T09:39:31.106Z,8.43
2022-11-25T09:42:34.773Z,7.33
2022-11-25T09:45:25.553Z,7.80
2022-11-25T09:47:59.872Z,7.90
2022-11-25T09:50:32.446Z,8.20
2022-11-25T09:53:06.576Z,8.17
2022-11-25T09:55:39.435Z,8.13
2022-11-25T09:58:17.659Z,7.70
2022-11-25T10:00:47.323Z,7.03
2022-11-25T10:03:19.504Z,8.03
2022-11-25T10:05:53.968Z,7.93
2022-11-25T10:08:23.854Z,7.60
2022-11-25T10:10:57.131Z,7.47
2022-11-25T10:13:30.687Z,8.13
2022-11-25T10:16:00.565Z,7.83
2022-11-25T10:18:31.206Z,8.07
2022-11-25T10:20:59.321Z,7.50
2022-11-25T10:23:29.410Z,7.60
2022-11-25T10:26:03.086Z,7.27
2022-11-25T10:28:32.239Z,6.70
2022-11-25T10:31:04.174Z,7.33
2022-11-25T10:33:33.421Z,7.23
2022-11-25T10:36:02.383Z,7.67
2022-11-25T10:38:32.018Z,9.20
2022-11-25T10:41:01.989Z,6.67
2022-11-25T10:43:31.924Z,7.37
2022-11-25T10:46:06.727Z,7.60
2022-11-25T10:48:46.741Z,7.47
2022-11-25T10:51:22.377Z,7.43
2022-11-25T10:54:05.117Z,6.83
2022-11-25T10:56:43.442Z,7.70
2022-11-25T10:59:14.508Z,7.57
2022-11-25T11:01:42.641Z,7.43
2022-11-25T11:04:15.082Z,8.07
2022-11-25T11:06:44.435Z,7.93
2022-11-25T11:09:27.157Z,8.80
2022-11-25T11:11:56.677Z,8.23
2022-11-25T11:14:29.998Z,8.43
2022-11-25T11:16:58.391Z,9.23
2022-11-25T11:19:27.766Z,8.03
2022-11-25T11:21:58.559Z,8.40
2022-11-25T11:24:32.107Z,7.83
2022-11-25T11:27:06.197Z,7.63
2022-11-25T11:29:34.245Z,8.47
2022-11-25T11:32:03.012Z,8.67
2022-11-25T11:34:51.669Z,9.10
2022-11-25T11:37:26.341Z,8.20
2022-11-25T11:40:03.287Z,8.40
2022-11-25T11:42:36.866Z,7.50
2022-11-25T11:45:11.403Z,8.20
2022-11-25T11:47:43.284Z,9.57
2022-11-25T11:50:26.433Z,8.17
2022-11-25T11:52:58.022Z,8.70
2022-11-25T11:55:43.736Z,8.13
2022-11-25T11:58:16.325Z,8.97
2022-11-25T12:00:46.975Z,8.23
2022-11-25T12:03:17.155Z,8.50
2022-11-25T12:05:45.236Z,7.57
2022-11-25T12:08:15.178Z,7.90
2022-11-25T12:10:45.056Z,7.47
2022-11-25T12:13:21.727Z,9.47
2022-11-25T12:15:54.075Z,7.70
2022-11-25T12:18:27.889Z,7.47
2022-11-25T12:20:59.996Z,7.63
2022-11-25T12:23:30.625Z,8.77
2022-11-25T12:26:03.131Z,7.97
2022-11-25T12:28:36.899Z,7.47
2022-11-25T12:31:07.582Z,6.63
2022-11-25T12:33:40.982Z,7.17
2022-11-25T12:36:11.660Z,6.73
2022-11-25T12:38:40.999Z,6.90
2022-11-25T12:41:13.541Z,7.00
2022-11-25T12:43:44.672Z,6.10
2022-11-25T12:46:16.617Z,6.27
2022-11-25T12:48:44.594Z,6.10
2022-11-25T12:51:19.356Z,6.37
2022-11-25T12:53:52.000Z,6.07
2022-11-25T12:56:23.122Z,7.30
2022-11-25T12:59:02.192Z,7.43
2022-11-25T13:01:35.414Z,5.77
2022-11-25T13:04:24.562Z,6.53
2022-11-25T13:07:10.161Z,5.93
2022-11-25T13:09:46.152Z,5.83
2022-11-25T13:12:19.477Z,5.40
2022-11-25T13:15:02.838Z,6.17
2022-11-25T13:17:33.415Z,5.73
2022-11-25T13:20:16.332Z,5.63
2022-11-25T13:22:44.223Z,5.93
2022-11-25T13:25:23.964Z,6.53
2022-11-25T13:28:01.993Z,5.87
2022-11-25T13:30:40.031Z,5.90
2022-11-25T13:33:25.693Z,5.87
2022-11-25T13:35:55.558Z,6.03
2022-11-25T13:38:37.192Z,5.97
2022-11-25T13:41:06.092Z,6.23
2022-11-25T13:43:36.812Z,5.80
2022-11-25T13:46:04.878Z,5.87
2022-11-25T13:48:37.685Z,8.43
2022-11-25T13:51:18.692Z,5.93
2022-11-25T13:53:52.347Z,5.60
2022-11-25T13:56:27.376Z,6.53
2022-11-25T13:59:13.922Z,5.80
2022-11-25T14:01:42.646Z,5.53
2022-11-25T14:04:12.154Z,5.57
2022-11-25T14:06:57.549Z,5.40
2022-11-25T14:09:36.569Z,6.20
2022-11-25T14:12:10.170Z,5.40
2022-11-25T14:14:50.209Z,6.53
2022-11-25T14:17:33.073Z,6.70
2022-11-25T14:20:16.006Z,10.40
2022-11-25T14:22:58.007Z,7.60
2022-11-25T14:25:29.258Z,6.33
2022-11-25T14:28:03.871Z,6.23
2022-11-25T14:30:32.871Z,5.67
2022-11-25T14:33:02.899Z,5.67
2022-11-25T14:35:34.064Z,5.70
2022-11-25T14:38:05.594Z,6.30
2022-11-25T14:40:39.805Z,6.77
2022-11-25T14:43:09.220Z,5.73
2022-11-25T14:45:37.403Z,6.53
2022-11-25T14:48:14.623Z,6.23
2022-11-25T14:50:43.280Z,9.77
2022-11-25T14:53:14.322Z,6.97
2022-11-25T14:55:42.262Z,5.17
2022-11-25T14:58:13.202Z,5.40
2022-11-25T15:00:50.707Z,5.93
2022-11-25T15:03:20.082Z,6.43
2022-11-25T15:05:54.705Z,6.80
2022-11-25T15:08:24.642Z,6.03
2022-11-25T15:10:54.054Z,5.50
2022-11-25T15:13:26.197Z,7.27
2022-11-25T15:15:55.966Z,7.90
2022-11-25T15:18:25.143Z,7.97
2022-11-25T15:20:57.543Z,7.10
2022-11-25T15:23:29.094Z,7.07
2022-11-25T15:25:58.084Z,6.27
2022-11-25T15:28:25.962Z,5.70
2022-11-25T15:30:58.584Z,5.43
2022-11-25T15:33:29.774Z,5.67
2022-11-25T15:35:58.038Z,5.30
2022-11-25T15:38:38.888Z,5.50
2022-11-25T15:41:07.469Z,5.30
2022-11-25T15:43:35.878Z,6.00
2022-11-25T15:46:04.563Z,5.50
2022-11-25T15:48:33.974Z,5.57
2022-11-25T15:51:04.254Z,5.77
2022-11-25T15:53:37.095Z,6.23
2022-11-25T15:56:07.993Z,5.03
2022-11-25T15:58:36.020Z,6.83
2022-11-25T16:01:05.126Z,5.27
2022-11-25T16:03:33.370Z,6.03
2022-11-25T16:06:01.810Z,4.83
2022-11-25T16:08:35.181Z,5.53
2022-11-25T16:11:19.613Z,6.37
2022-11-25T16:13:48.152Z,5.43
2022-11-25T16:16:24.206Z,5.50
2022-11-25T16:18:57.849Z,5.30
2022-11-25T16:21:26.628Z,6.67
2022-11-25T16:23:58.077Z,5.03
2022-11-25T16:26:29.641Z,6.17
2022-11-25T16:28:58.284Z,6.17
2022-11-25T16:31:26.693Z,9.27
2022-11-25T16:33:56.122Z,6.87
2022-11-25T16:36:24.102Z,5.40
2022-11-25T16:38:53.250Z,5.40
2022-11-25T16:41:22.525Z,5.20
2022-11-25T16:43:51.921Z,5.97
2022-11-25T16:46:21.339Z,6.10
2022-11-25T16:48:49.444Z,6.63
2022-11-25T16:51:29.059Z,7.03
2022-11-25T16:54:24.702Z,6.47
2022-11-25T16:56:53.585Z,6.53
2022-11-25T16:59:26.609Z,8.67
2022-11-25T17:01:54.625Z,6.53
2022-11-25T17:04:22.950Z,6.97
2022-11-25T17:07:24.168Z,6.67
2022-11-25T17:09:39.106Z,4.93
2022-11-25T17:12:08.539Z,6.17
2022-11-25T17:14:38.589Z,5.63
2022-11-25T17:17:06.893Z,5.53
2022-11-25T17:19:35.108Z,6.20
2022-11-25T17:22:03.309Z,6.30
2022-11-25T17:24:31.521Z,5.80
2022-11-25T17:27:04.167Z,6.23
2022-11-25T17:29:35.312Z,6.13
2022-11-25T17:32:05.640Z,7.57
2022-11-25T17:34:37.975Z,7.50
2022-11-25T17:37:08.566Z,6.80
2022-11-25T17:39:36.662Z,6.07
2022-11-25T17:42:06.164Z,7.50
2022-11-25T17:44:34.167Z,7.57
2022-11-25T17:47:02.544Z,6.87
2022-11-25T17:49:31.898Z,6.43
2022-11-25T17:51:59.837Z,7.20
2022-11-25T17:54:27.703Z,7.03
2022-11-25T17:56:55.654Z,6.97
2022-11-25T17:59:25.592Z,6.47
2022-11-25T18:01:56.162Z,6.73
2022-11-25T18:04:28.170Z,5.93
2022-11-25T18:06:57.629Z,6.17
2022-11-25T18:09:25.582Z,5.90
2022-11-25T18:11:55.598Z,6.53
2022-11-25T18:14:26.610Z,6.30
2022-11-25T18:16:54.733Z,6.30
2022-11-25T18:19:22.828Z,6.27
2022-11-25T18:21:50.816Z,5.57
2022-11-25T18:24:20.149Z,4.67
2022-11-25T18:26:49.944Z,5.70
2022-11-25T18:29:20.582Z,4.87
2022-11-25T18:31:49.976Z,4.90
2022-11-25T18:34:18.808Z,4.73
2022-11-25T18:36:47.129Z,4.27
2022-11-25T18:39:15.127Z,4.17
2022-11-25T18:41:45.533Z,4.90
2022-11-25T18:44:24.489Z,4.50
2022-11-25T18:46:53.998Z,4.27
2022-11-25T18:49:25.078Z,4.77
2022-11-25T18:51:52.998Z,3.63
2022-11-25T18:54:20.950Z,3.87
2022-11-25T18:56:53.400Z,4.33
2022-11-25T18:59:25.362Z,4.00
2022-11-25T19:01:53.379Z,3.97
2022-11-25T19:04:21.404Z,3.73
2022-11-25T19:06:49.348Z,3.80
2022-11-25T19:09:17.289Z,3.33
2022-11-25T19:11:46.995Z,4.07
2022-11-25T19:14:21.802Z,3.63
2022-11-25T19:16:49.847Z,3.67
2022-11-25T19:19:18.359Z,3.67
2022-11-25T19:21:46.307Z,3.70
2022-11-25T19:24:14.824Z,3.57
2022-11-25T19:26:44.344Z,3.80
2022-11-25T19:29:15.986Z,4.23
2022-11-25T19:31:45.627Z,3.53
2022-11-25T19:34:19.804Z,3.67
2022-11-25T19:36:47.702Z,3.50
2022-11-25T19:39:17.865Z,4.30
2022-11-25T19:41:45.935Z,4.50
2022-11-25T19:44:14.551Z,4.53
2022-11-25T19:47:13.038Z,4.80
2022-11-25T19:49:34.385Z,4.07
2022-11-25T19:52:02.319Z,4.87
2022-11-25T19:54:30.404Z,5.17
2022-11-25T19:56:58.337Z,4.23
2022-11-25T19:59:26.232Z,3.80
2022-11-25T20:01:54.317Z,4.20
2022-11-25T20:04:22.649Z,4.67
2022-11-25T20:06:52.132Z,4.90
2022-11-25T20:09:20.108Z,4.37
2022-11-25T20:11:48.038Z,4.37
2022-11-25T20:14:15.923Z,4.47
2022-11-25T20:16:43.983Z,4.57
2022-11-25T20:19:16.649Z,4.67
2022-11-25T20:21:46.475Z,4.40
2022-11-25T20:24:18.938Z,4.30
2022-11-25T20:26:48.812Z,4.27
2022-11-25T20:29:18.183Z,4.00
2022-11-25T20:31:46.237Z,4.90
2022-11-25T20:34:14.269Z,3.83
2022-11-25T20:36:43.351Z,3.93
2022-11-25T20:39:16.730Z,3.93
2022-11-25T20:41:47.956Z,4.30
2022-11-25T20:44:15.901Z,3.83
2022-11-25T20:46:43.836Z,4.40
2022-11-25T20:49:20.048Z,3.80
2022-11-25T20:51:48.022Z,4.27
2022-11-25T20:54:16.868Z,4.80
2022-11-25T20:56:46.207Z,4.27
2022-11-25T20:59:19.664Z,4.03
2022-11-25T21:01:47.788Z,4.80
2022-11-25T21:04:15.767Z,4.17
2022-11-25T21:06:43.769Z,4.40
2022-11-25T21:09:16.412Z,4.93
2022-11-25T21:11:44.475Z,4.90
2022-11-25T21:14:15.301Z,3.87
2022-11-25T21:16:43.281Z,3.93
2022-11-25T21:19:11.308Z,4.60
2022-11-25T21:21:40.476Z,4.33
2022-11-25T21:24:11.683Z,4.77
2022-11-25T21:26:39.593Z,9.50
2022-11-25T21:29:07.493Z,4.87
2022-11-25T21:31:37.242Z,4.13
2022-11-25T21:34:10.663Z,4.47
2022-11-25T21:36:39.251Z,3.93
2022-11-25T21:39:09.126Z,3.90
2022-11-25T21:41:37.271Z,4.43
2022-11-25T21:44:06.013Z,4.80
2022-11-25T21:46:34.247Z,4.70
2022-11-25T21:49:04.055Z,4.57
2022-11-25T21:51:32.022Z,4.30
2022-11-25T21:54:00.016Z,5.53
2022-11-25T21:56:29.426Z,4.13
2022-11-25T21:58:59.013Z,4.97
2022-11-25T22:01:31.704Z,3.93
2022-11-25T22:03:59.814Z,4.83
2022-11-25T22:06:30.096Z,4.77
2022-11-25T22:08:58.563Z,4.50
2022-11-25T22:11:28.969Z,5.07
2022-11-25T22:13:56.864Z,4.67
2022-11-25T22:16:27.378Z,5.30
2022-11-25T22:18:55.434Z,5.30
2022-11-25T22:21:23.656Z,5.13
2022-11-25T22:23:53.155Z,5.17
2022-11-25T22:26:22.771Z,4.90
2022-11-25T22:28:52.654Z,5.17
2022-11-25T22:31:21.193Z,6.30
2022-11-25T22:33:49.340Z,6.80
2022-11-25T22:36:26.337Z,6.47
2022-11-25T22:38:55.733Z,5.87
2022-11-25T22:41:23.675Z,5.87
2022-11-25T22:43:53.007Z,6.07
2022-11-25T22:46:21.046Z,6.20
2022-11-25T22:48:49.211Z,5.97
2022-11-25T22:51:18.560Z,5.70
2022-11-25T22:53:46.476Z,5.57
2022-11-25T22:56:18.298Z,5.67
2022-11-25T22:58:46.786Z,4.77
2022-11-25T23:01:15.737Z,4.03
2022-11-25T23:03:44.323Z,4.40
2022-11-25T23:06:13.001Z,4.77
2022-11-25T23:08:41.145Z,4.63
2022-11-25T23:11:12.369Z,4.03
2022-11-25T23:13:41.736Z,4.33
2022-11-25T23:16:11.248Z,4.43
2022-11-25T23:18:39.892Z,3.70
2022-11-25T23:21:08.362Z,3.90
2022-11-25T23:23:36.269Z,4.00
2022-11-25T23:26:06.615Z,4.23
2022-11-25T23:28:34.512Z,4.13
2022-11-25T23:31:04.231Z,4.13
2022-11-25T23:33:35.032Z,4.43
2022-11-25T23:36:07.621Z,4.07
2022-11-25T23:38:39.587Z,4.03
2022-11-25T23:41:07.539Z,3.53
2022-11-25T23:43:38.497Z,3.90
2022-11-25T23:46:08.349Z,4.00
2022-11-25T23:48:36.355Z,4.97
2022-11-25T23:51:04.412Z,3.50
2022-11-25T23:53:33.337Z,4.93
2022-11-25T23:56:01.273Z,3.80
2022-11-25T23:58:29.281Z,3.90
